Rillito, Arizona
Current Conditions -  °F | °C
As of 4:15 AM on Sunday 23 Nov 2014 (Local Time) from KAVQ Reporting Station
Clear Clear  
Wind Chill: 47°   Ceiling: Unl
Heat Index: 50°   Visibility: 10mi
Dew Point: 27°   Wind: 7mph
Humidity: 42%   Direction: 120°ESE
Pressure: 29.96"   Gusts: NA
Location:  32.41°N, 111.16°W
Report Text: KAVQ 231115Z AUTO 12006KT 10SM CLR 10/M03 A2996 RMK AO2 T00981026
Loading
Personal Weather Stations






























Interactive Weather Map New forecast layout! Learn more

10-Day Weather Forecast

Advertisements
Track Severe Weather on mobile